createdAt,value
2022-11-28T00:01:41.432Z,110.59
2022-11-28T00:04:09.131Z,110.53
2022-11-28T00:06:41.462Z,110.73
2022-11-28T00:09:09.110Z,110.66
2022-11-28T00:11:35.895Z,110.55
2022-11-28T00:14:02.543Z,110.49
2022-11-28T00:16:29.403Z,110.51
2022-11-28T00:18:56.240Z,110.69
2022-11-28T00:21:23.849Z,110.52
2022-11-28T00:23:51.396Z,110.52
2022-11-28T00:26:22.062Z,110.49
2022-11-28T00:28:49.434Z,110.69
2022-11-28T00:31:19.608Z,110.28
2022-11-28T00:33:47.179Z,110.97
2022-11-28T00:36:14.926Z,110.65
2022-11-28T00:38:41.941Z,110.79
2022-11-28T00:41:12.030Z,110.69
2022-11-28T00:43:39.052Z,110.58
2022-11-28T00:46:06.786Z,110.36
2022-11-28T00:48:34.478Z,110.63
2022-11-28T00:51:22.955Z,110.55
2022-11-28T00:53:51.155Z,110.61
2022-11-28T00:56:21.401Z,110.74
2022-11-28T00:58:49.665Z,110.46
2022-11-28T01:01:32.079Z,110.49
2022-11-28T01:04:01.735Z,110.10
2022-11-28T01:06:31.537Z,110.04
2022-11-28T01:09:00.428Z,110.33
2022-11-28T01:11:28.201Z,110.42
2022-11-28T01:13:57.203Z,110.60
2022-11-28T01:16:24.127Z,110.57
2022-11-28T01:18:51.230Z,110.41
2022-11-28T01:21:19.065Z,110.12
2022-11-28T01:23:45.985Z,110.17
2022-11-28T01:26:18.968Z,110.36
2022-11-28T01:28:46.369Z,110.35
2022-11-28T01:31:15.859Z,110.37
2022-11-28T01:33:42.931Z,110.48
2022-11-28T01:36:11.372Z,110.23
2022-11-28T01:38:38.662Z,110.39
2022-11-28T01:41:06.029Z,110.33
2022-11-28T01:43:32.971Z,110.46
2022-11-28T01:45:59.818Z,110.61
2022-11-28T01:48:38.457Z,110.71
2022-11-28T01:51:07.036Z,110.89
2022-11-28T01:53:39.867Z,110.58
2022-11-28T01:56:13.063Z,110.88
2022-11-28T01:58:43.530Z,110.55
2022-11-28T02:01:11.028Z,110.67
2022-11-28T02:03:46.977Z,110.78
2022-11-28T02:06:16.061Z,110.75
2022-11-28T02:08:42.972Z,110.94
2022-11-28T02:11:31.593Z,110.51
2022-11-28T02:14:13.416Z,110.71
2022-11-28T02:17:10.977Z,110.97
2022-11-28T02:20:17.038Z,110.63
2022-11-28T02:23:14.434Z,110.71
2022-11-28T02:25:44.242Z,110.70
2022-11-28T02:28:35.203Z,110.86
2022-11-28T02:31:41.426Z,111.17
2022-11-28T02:34:20.174Z,111.33
2022-11-28T02:37:03.452Z,111.52
2022-11-28T02:40:00.674Z,111.31
2022-11-28T02:42:53.589Z,111.58
2022-11-28T02:45:29.545Z,111.58
2022-11-28T02:48:04.946Z,111.26
2022-11-28T02:50:42.104Z,111.20
2022-11-28T02:53:14.524Z,111.46
2022-11-28T02:55:43.434Z,111.56
2022-11-28T02:58:11.584Z,111.28
2022-11-28T03:00:46.250Z,111.58
2022-11-28T03:03:43.937Z,111.37
2022-11-28T03:06:32.027Z,111.54
2022-11-28T03:09:36.668Z,111.29
2022-11-28T03:12:33.996Z,111.57
2022-11-28T03:15:03.678Z,111.60
2022-11-28T03:17:46.040Z,111.33
2022-11-28T03:20:55.067Z,111.48
2022-11-28T03:23:48.808Z,111.27
2022-11-28T03:26:36.748Z,110.86
2022-11-28T03:29:15.247Z,110.84
2022-11-28T03:31:50.483Z,110.81
2022-11-28T03:34:22.052Z,110.87
2022-11-28T03:37:03.922Z,110.91
2022-11-28T03:39:36.853Z,110.95
2022-11-28T03:42:13.004Z,111.13
2022-11-28T03:45:02.716Z,110.63
2022-11-28T03:47:33.888Z,110.51
2022-11-28T03:50:06.548Z,110.49
2022-11-28T03:52:39.800Z,110.48
2022-11-28T03:55:33.035Z,110.28
2022-11-28T03:58:11.827Z,110.17
2022-11-28T04:01:01.938Z,110.28
2022-11-28T04:03:46.274Z,110.18
2022-11-28T04:06:21.923Z,110.49
2022-11-28T04:09:14.634Z,110.43
2022-11-28T04:11:54.301Z,110.39
2022-11-28T04:14:30.451Z,110.33
2022-11-28T04:17:27.287Z,110.20
2022-11-28T04:20:05.670Z,110.18
2022-11-28T04:22:38.124Z,110.08
2022-11-28T04:25:09.616Z,110.26
2022-11-28T04:27:40.042Z,110.16
2022-11-28T04:30:08.872Z,110.36
2022-11-28T04:32:39.585Z,110.20
2022-11-28T04:35:10.923Z,110.26
2022-11-28T04:37:39.807Z,110.35
2022-11-28T04:40:11.230Z,110.22
2022-11-28T04:42:45.670Z,110.74
2022-11-28T04:45:17.682Z,110.72
2022-11-28T04:47:45.379Z,110.89
2022-11-28T04:50:13.469Z,110.49
2022-11-28T04:52:55.269Z,110.68
2022-11-28T04:55:27.965Z,110.73
2022-11-28T04:58:19.035Z,110.36
2022-11-28T05:00:48.478Z,110.71
2022-11-28T05:03:15.420Z,110.62
2022-11-28T05:05:50.092Z,110.63
2022-11-28T05:08:18.215Z,110.57
2022-11-28T05:10:45.404Z,110.69
2022-11-28T05:13:12.187Z,110.50
2022-11-28T05:15:38.931Z,110.61
2022-11-28T05:18:06.181Z,111.61
2022-11-28T05:20:33.149Z,110.41
2022-11-28T05:22:59.821Z,110.40
2022-11-28T05:25:26.579Z,110.33
2022-11-28T05:27:53.344Z,109.97
2022-11-28T05:30:20.167Z,109.98
2022-11-28T05:32:47.216Z,109.95
2022-11-28T05:35:14.276Z,110.20
2022-11-28T05:37:40.936Z,110.06
2022-11-28T05:40:08.079Z,110.36
2022-11-28T05:42:36.042Z,110.05
2022-11-28T05:45:03.851Z,109.69
2022-11-28T05:47:32.135Z,110.22
2022-11-28T05:49:58.965Z,109.94
2022-11-28T05:52:26.189Z,109.81
2022-11-28T05:54:52.884Z,109.62
2022-11-28T05:57:19.633Z,109.80
2022-11-28T05:59:46.407Z,109.82
2022-11-28T06:02:13.372Z,109.64
2022-11-28T06:04:41.963Z,109.85
2022-11-28T06:07:09.196Z,109.56
2022-11-28T06:09:36.312Z,109.62
2022-11-28T06:12:03.164Z,109.72
2022-11-28T06:14:29.824Z,109.52
2022-11-28T06:16:56.655Z,109.23
2022-11-28T06:19:23.907Z,109.05
2022-11-28T06:21:50.928Z,108.76
2022-11-28T06:24:17.592Z,109.06
2022-11-28T06:26:44.261Z,109.39
2022-11-28T06:29:10.908Z,108.90
2022-11-28T06:31:37.762Z,108.74
2022-11-28T06:34:04.509Z,108.44
2022-11-28T06:36:31.269Z,108.68
2022-11-28T06:38:58.074Z,108.91
2022-11-28T06:41:24.804Z,109.10
2022-11-28T06:43:51.593Z,108.72
2022-11-28T06:46:20.571Z,108.38
2022-11-28T06:48:48.629Z,107.75
2022-11-28T06:51:16.839Z,109.17
2022-11-28T06:53:44.630Z,106.50
2022-11-28T06:56:14.389Z,106.88
2022-11-28T06:58:42.158Z,107.66
2022-11-28T07:01:13.637Z,107.40
2022-11-28T07:03:40.969Z,107.66
2022-11-28T07:06:08.168Z,107.06
2022-11-28T07:08:35.671Z,107.34
2022-11-28T07:11:16.388Z,107.39
2022-11-28T07:13:45.722Z,107.20
2022-11-28T07:16:16.474Z,107.46
2022-11-28T07:18:44.608Z,107.51
2022-11-28T07:21:12.269Z,107.17
2022-11-28T07:23:38.983Z,107.20
2022-11-28T07:26:06.954Z,106.92
2022-11-28T07:28:34.909Z,106.62
2022-11-28T07:31:13.660Z,106.21
2022-11-28T07:33:42.370Z,106.56
2022-11-28T07:36:21.813Z,106.46
2022-11-28T07:38:50.510Z,106.57
2022-11-28T07:41:17.629Z,106.47
2022-11-28T07:43:46.146Z,105.79
2022-11-28T07:46:18.334Z,105.85
2022-11-28T07:48:46.111Z,106.12
2022-11-28T07:51:15.678Z,106.15
2022-11-28T07:53:43.145Z,105.70
2022-11-28T07:56:14.884Z,105.69
2022-11-28T07:58:43.261Z,104.97
2022-11-28T08:01:16.420Z,105.02
2022-11-28T08:03:47.302Z,104.57
2022-11-28T08:06:16.575Z,104.99
2022-11-28T08:08:45.461Z,105.13
2022-11-28T08:11:12.970Z,104.70
2022-11-28T08:13:40.734Z,104.22
2022-11-28T08:16:12.538Z,104.05
2022-11-28T08:18:39.414Z,103.97
2022-11-28T08:21:11.862Z,103.94
2022-11-28T08:23:39.678Z,103.83
2022-11-28T08:26:09.273Z,103.71
2022-11-28T08:28:36.782Z,103.87
2022-11-28T08:31:15.651Z,103.33
2022-11-28T08:33:42.851Z,103.84
2022-11-28T08:36:11.722Z,103.25
2022-11-28T08:38:39.276Z,103.57
2022-11-28T08:41:18.670Z,103.29
2022-11-28T08:43:46.278Z,102.85
2022-11-28T08:46:16.254Z,103.25
2022-11-28T08:48:43.394Z,104.05
2022-11-28T08:51:16.055Z,104.35
2022-11-28T08:53:48.559Z,104.31
2022-11-28T08:56:16.179Z,104.57
2022-11-28T08:58:42.922Z,105.30
2022-11-28T09:01:18.739Z,105.39
2022-11-28T09:03:46.136Z,104.98
2022-11-28T09:06:13.642Z,105.11
2022-11-28T09:08:40.433Z,105.24
2022-11-28T09:11:12.630Z,105.11
2022-11-28T09:13:39.641Z,105.42
2022-11-28T09:16:07.299Z,105.46
2022-11-28T09:18:34.149Z,105.51
2022-11-28T09:21:03.039Z,105.31
2022-11-28T09:23:29.843Z,104.84
2022-11-28T09:25:57.910Z,104.89
2022-11-28T09:28:25.014Z,104.69
2022-11-28T09:31:00.049Z,104.64
2022-11-28T09:33:26.828Z,104.98
2022-11-28T09:35:55.470Z,104.51
2022-11-28T09:38:23.016Z,104.60
2022-11-28T09:40:50.169Z,103.59
2022-11-28T09:43:26.801Z,104.24
2022-11-28T09:45:56.114Z,103.87
2022-11-28T09:48:36.844Z,104.16
2022-11-28T09:51:28.573Z,104.18
2022-11-28T09:54:30.778Z,103.92
2022-11-28T09:56:58.865Z,104.12
2022-11-28T09:59:28.582Z,103.92
2022-11-28T10:02:15.505Z,103.99
2022-11-28T10:04:52.754Z,103.96
2022-11-28T10:07:43.369Z,103.72
2022-11-28T10:10:34.679Z,104.12
2022-11-28T10:13:29.660Z,104.53
2022-11-28T10:15:59.492Z,104.62
2022-11-28T10:18:43.390Z,104.00
2022-11-28T10:21:35.427Z,104.28
2022-11-28T10:24:13.760Z,103.95
2022-11-28T10:26:43.048Z,104.27
2022-11-28T10:29:32.010Z,103.95
2022-11-28T10:32:02.248Z,103.90
2022-11-28T10:34:34.690Z,103.99
2022-11-28T10:37:10.880Z,103.63
2022-11-28T10:39:44.066Z,103.52
2022-11-28T10:42:23.112Z,103.66
2022-11-28T10:45:17.415Z,102.07
2022-11-28T10:48:29.555Z,102.25
2022-11-28T10:51:17.681Z,101.69
2022-11-28T10:53:52.702Z,101.79
2022-11-28T10:57:05.895Z,101.17
2022-11-28T11:00:06.668Z,101.81
2022-11-28T11:02:46.504Z,101.44
2022-11-28T11:05:31.534Z,101.48
2022-11-28T11:08:22.306Z,100.86
2022-11-28T11:10:50.861Z,100.52
2022-11-28T11:13:24.116Z,100.33
2022-11-28T11:16:04.226Z,99.32
2022-11-28T11:18:58.628Z,99.65
2022-11-28T11:21:27.009Z,100.18
2022-11-28T11:24:16.027Z,99.32
2022-11-28T11:26:46.022Z,98.72
2022-11-28T11:29:40.198Z,98.58
2022-11-28T11:32:21.642Z,98.92
2022-11-28T11:34:48.853Z,98.93
2022-11-28T11:37:37.418Z,99.06
2022-11-28T11:40:29.411Z,98.97
2022-11-28T11:43:00.369Z,99.14
2022-11-28T11:45:31.422Z,99.43
2022-11-28T11:47:58.425Z,100.19
2022-11-28T11:50:27.977Z,99.74
2022-11-28T11:53:27.151Z,99.39
2022-11-28T11:55:55.790Z,99.05
2022-11-28T11:58:27.398Z,98.84
2022-11-28T12:00:57.369Z,98.46
2022-11-28T12:03:40.698Z,98.09
2022-11-28T12:06:17.501Z,98.54
2022-11-28T12:08:53.837Z,98.35
2022-11-28T12:11:27.758Z,98.87
2022-11-28T12:13:56.198Z,99.13
2022-11-28T12:16:53.184Z,98.87
2022-11-28T12:19:38.732Z,98.62
2022-11-28T12:22:17.448Z,98.61
2022-11-28T12:24:58.448Z,99.04
2022-11-28T12:27:43.337Z,98.91
2022-11-28T12:30:47.669Z,98.94
2022-11-28T12:33:39.279Z,98.81
2022-11-28T12:36:26.141Z,99.78
2022-11-28T12:39:14.934Z,99.61
2022-11-28T12:42:00.991Z,99.77
2022-11-28T12:45:05.453Z,99.15
2022-11-28T12:47:48.613Z,99.64
2022-11-28T12:50:31.777Z,99.60
2022-11-28T12:53:41.103Z,99.96
2022-11-28T12:56:30.103Z,99.90
2022-11-28T12:59:40.101Z,99.60
2022-11-28T13:02:19.406Z,99.68
2022-11-28T13:04:56.991Z,100.22
2022-11-28T13:07:26.676Z,100.39
2022-11-28T13:09:59.734Z,100.18
2022-11-28T13:12:37.041Z,100.16
2022-11-28T13:15:17.422Z,100.75
2022-11-28T13:17:52.660Z,100.90
2022-11-28T13:20:29.398Z,100.82
2022-11-28T13:23:14.556Z,100.45
2022-11-28T13:26:00.572Z,100.46
2022-11-28T13:28:42.481Z,100.70
2022-11-28T13:31:36.320Z,100.77
2022-11-28T13:34:04.143Z,101.16
2022-11-28T13:40:00.047Z,101.61
2022-11-28T13:43:02.354Z,101.76
2022-11-28T13:45:30.067Z,101.35
2022-11-28T13:48:00.279Z,101.03
2022-11-28T13:50:41.256Z,101.96
2022-11-28T13:53:10.325Z,101.89
2022-11-28T13:55:37.327Z,102.38
2022-11-28T13:58:49.556Z,102.52
2022-11-28T14:01:18.999Z,103.24
2022-11-28T14:03:50.016Z,103.12
2022-11-28T14:06:23.747Z,103.50
2022-11-28T14:09:16.542Z,103.54
2022-11-28T14:12:11.542Z,104.18
2022-11-28T14:14:50.461Z,104.62
2022-11-28T14:17:54.772Z,104.50
2022-11-28T14:20:54.152Z,104.63
2022-11-28T14:23:32.902Z,104.60
2022-11-28T14:25:59.859Z,104.39
2022-11-28T14:28:36.877Z,103.82
2022-11-28T14:31:09.937Z,104.21
2022-11-28T14:33:40.765Z,103.93
2022-11-28T14:36:33.920Z,104.03
2022-11-28T14:39:24.602Z,104.09
2022-11-28T14:42:08.212Z,104.48
2022-11-28T14:44:54.659Z,104.23
2022-11-28T14:47:21.797Z,104.28
2022-11-28T14:49:49.617Z,103.96
2022-11-28T14:52:37.674Z,103.70
2022-11-28T14:55:17.678Z,103.18
2022-11-28T14:57:44.515Z,103.32
2022-11-28T15:00:18.028Z,103.07
2022-11-28T15:02:54.826Z,103.64
2022-11-28T15:05:36.426Z,103.83
2022-11-28T15:08:15.481Z,103.77
2022-11-28T15:11:04.844Z,104.04
2022-11-28T15:14:09.809Z,103.99
2022-11-28T15:16:48.420Z,104.39
2022-11-28T15:19:20.152Z,104.45
2022-11-28T15:21:49.034Z,104.87
2022-11-28T15:24:37.250Z,104.44
2022-11-28T15:27:06.904Z,104.53
2022-11-28T15:29:34.292Z,104.31
2022-11-28T15:32:02.000Z,104.30
2022-11-28T15:34:34.185Z,103.96
2022-11-28T15:37:04.410Z,104.44
2022-11-28T15:39:39.965Z,104.15
2022-11-28T15:42:16.614Z,104.13
2022-11-28T15:44:43.996Z,104.27
2022-11-28T15:47:20.414Z,104.08
2022-11-28T15:49:59.058Z,103.86
2022-11-28T15:52:26.059Z,103.93
2022-11-28T15:54:52.830Z,103.69
2022-11-28T15:57:25.959Z,104.12
2022-11-28T15:59:53.113Z,103.96
2022-11-28T16:02:33.973Z,103.70
2022-11-28T16:05:21.898Z,103.98
2022-11-28T16:07:52.273Z,104.01
2022-11-28T16:10:26.938Z,104.20
2022-11-28T16:13:01.944Z,104.11
2022-11-28T16:15:30.005Z,103.76
2022-11-28T16:17:57.120Z,104.16
2022-11-28T16:20:33.127Z,103.49
2022-11-28T16:23:20.856Z,103.75
2022-11-28T16:26:07.410Z,103.54
2022-11-28T16:28:39.747Z,103.66
2022-11-28T16:31:19.192Z,103.22
2022-11-28T16:33:47.929Z,103.23
2022-11-28T16:36:17.955Z,102.96
2022-11-28T16:38:47.072Z,103.65
2022-11-28T16:41:22.366Z,103.36
2022-11-28T16:43:55.759Z,103.11
2022-11-28T16:46:25.360Z,103.59
2022-11-28T16:49:02.459Z,103.53
2022-11-28T16:51:30.573Z,103.60
2022-11-28T16:53:59.622Z,103.89
2022-11-28T16:56:30.114Z,103.61
2022-11-28T16:59:12.203Z,103.63
2022-11-28T17:01:40.415Z,103.80
2022-11-28T17:04:18.581Z,103.76
2022-11-28T17:06:45.295Z,104.09
2022-11-28T17:09:12.832Z,103.53
2022-11-28T17:11:55.013Z,104.10
2022-11-28T17:14:21.782Z,104.22
2022-11-28T17:16:48.585Z,103.95
2022-11-28T17:19:15.385Z,104.26
2022-11-28T17:21:54.476Z,104.21
2022-11-28T17:24:26.954Z,104.25
2022-11-28T17:26:54.394Z,103.97
2022-11-28T17:29:21.836Z,104.44
2022-11-28T17:31:49.556Z,104.65
2022-11-28T17:34:18.896Z,104.84
2022-11-28T17:36:45.926Z,104.60
2022-11-28T17:39:12.607Z,104.73
2022-11-28T17:41:40.090Z,104.60
2022-11-28T17:44:12.436Z,105.48
2022-11-28T17:46:39.175Z,105.21
2022-11-28T17:49:05.916Z,105.26
2022-11-28T17:51:32.627Z,104.74
2022-11-28T17:53:59.317Z,104.65
2022-11-28T17:56:26.960Z,104.66
2022-11-28T17:58:53.791Z,104.94
2022-11-28T18:01:26.679Z,104.92
2022-11-28T18:03:53.570Z,104.98
2022-11-28T18:06:22.644Z,105.16
2022-11-28T18:08:53.198Z,105.12
2022-11-28T18:11:20.863Z,105.22
2022-11-28T18:13:47.587Z,105.32
2022-11-28T18:16:17.286Z,105.20
2022-11-28T18:18:44.625Z,105.42
2022-11-28T18:21:12.324Z,105.34
2022-11-28T18:23:40.421Z,105.33
2022-11-28T18:26:08.537Z,105.28
2022-11-28T18:28:35.589Z,105.44
2022-11-28T18:31:10.335Z,105.89
2022-11-28T18:33:37.897Z,105.58
2022-11-28T18:36:15.510Z,104.96
2022-11-28T18:38:42.361Z,105.22
2022-11-28T18:41:12.410Z,105.07
2022-11-28T18:43:39.301Z,105.62
2022-11-28T18:46:07.675Z,105.56
2022-11-28T18:48:37.673Z,105.18
2022-11-28T18:51:23.118Z,105.41
2022-11-28T18:53:53.428Z,105.04
2022-11-28T18:56:21.729Z,105.01
2022-11-28T18:58:54.751Z,105.63
2022-11-28T19:01:31.684Z,105.62
2022-11-28T19:04:11.900Z,105.48
2022-11-28T19:06:40.808Z,105.69
2022-11-28T19:09:11.107Z,105.61
2022-11-28T19:11:40.133Z,105.85
2022-11-28T19:14:11.659Z,105.45
2022-11-28T19:16:39.196Z,105.31
2022-11-28T19:19:06.683Z,105.82
2022-11-28T19:21:36.907Z,105.72
2022-11-28T19:24:11.221Z,105.72
2022-11-28T19:26:39.004Z,105.85
2022-11-28T19:29:06.570Z,105.59
2022-11-28T19:31:36.029Z,105.88
2022-11-28T19:34:10.296Z,105.85
2022-11-28T19:36:48.434Z,106.08
2022-11-28T19:39:18.071Z,105.94
2022-11-28T19:41:45.390Z,105.73
2022-11-28T19:44:13.515Z,105.98
2022-11-28T19:46:40.493Z,105.95
2022-11-28T19:49:10.740Z,106.15
2022-11-28T19:51:37.440Z,106.47
2022-11-28T19:54:04.362Z,106.31
2022-11-28T19:56:32.350Z,106.37
2022-11-28T19:58:59.673Z,106.22
2022-11-28T20:01:26.481Z,106.60
2022-11-28T20:03:53.819Z,106.69
2022-11-28T20:06:23.484Z,107.17
2022-11-28T20:08:51.859Z,107.06
2022-11-28T20:11:22.341Z,107.04
2022-11-28T20:13:49.969Z,107.57
2022-11-28T20:16:17.833Z,107.59
2022-11-28T20:18:45.586Z,107.33
2022-11-28T20:21:15.302Z,107.45
2022-11-28T20:23:44.499Z,107.76
2022-11-28T20:26:12.701Z,107.68
2022-11-28T20:28:41.001Z,107.72
2022-11-28T20:31:35.714Z,107.66
2022-11-28T20:34:02.947Z,107.91
2022-11-28T20:36:31.374Z,108.23
2022-11-28T20:38:59.378Z,108.56
2022-11-28T20:41:28.502Z,108.33
2022-11-28T20:43:55.293Z,108.23
2022-11-28T20:46:30.398Z,107.75
2022-11-28T20:48:59.475Z,107.86
2022-11-28T20:51:27.726Z,107.91
2022-11-28T20:53:56.006Z,107.56
2022-11-28T20:56:24.963Z,107.85
2022-11-28T20:58:52.394Z,107.80
2022-11-28T21:01:22.479Z,107.85
2022-11-28T21:03:51.297Z,107.86
2022-11-28T21:06:18.796Z,108.27
2022-11-28T21:08:46.154Z,108.25
2022-11-28T21:11:50.011Z,108.20
2022-11-28T21:14:08.833Z,108.12
2022-11-28T21:16:35.809Z,107.85
2022-11-28T21:19:08.942Z,108.14
2022-11-28T21:21:38.994Z,108.04
2022-11-28T21:24:12.700Z,108.25
2022-11-28T21:26:43.190Z,108.41
2022-11-28T21:29:13.424Z,108.16
2022-11-28T21:31:42.277Z,108.26
2022-11-28T21:34:14.197Z,108.97
2022-11-28T21:36:41.312Z,108.96
2022-11-28T21:39:11.560Z,108.60
2022-11-28T21:41:38.386Z,108.87
2022-11-28T21:44:05.206Z,109.10
2022-11-28T21:46:32.034Z,109.18
2022-11-28T21:48:58.751Z,108.86
2022-11-28T21:51:28.452Z,108.77
2022-11-28T21:53:57.461Z,108.69
2022-11-28T21:56:25.551Z,108.97
2022-11-28T21:58:52.702Z,108.99
2022-11-28T22:01:21.305Z,108.94
2022-11-28T22:03:48.699Z,109.35
2022-11-28T22:06:16.913Z,109.03
2022-11-28T22:08:44.595Z,108.59
2022-11-28T22:11:13.263Z,109.07
2022-11-28T22:13:45.960Z,109.07
2022-11-28T22:16:24.351Z,109.08
2022-11-28T22:18:53.735Z,109.23
2022-11-28T22:21:50.559Z,109.44
2022-11-28T22:24:08.769Z,109.31
2022-11-28T22:26:35.557Z,109.78
2022-11-28T22:29:03.962Z,109.68
2022-11-28T22:31:31.379Z,109.78
2022-11-28T22:33:58.101Z,109.90
2022-11-28T22:36:24.799Z,109.94
2022-11-28T22:38:55.893Z,110.06
2022-11-28T22:41:28.441Z,110.40
2022-11-28T22:44:01.530Z,110.20
2022-11-28T22:46:28.918Z,110.13
2022-11-28T22:48:56.095Z,110.45
2022-11-28T22:51:25.422Z,110.26
2022-11-28T22:54:02.424Z,110.02
2022-11-28T22:56:31.819Z,110.14
2022-11-28T22:58:59.080Z,110.42
2022-11-28T23:01:29.236Z,110.64
2022-11-28T23:03:56.701Z,110.18
2022-11-28T23:06:34.816Z,109.82
2022-11-28T23:09:06.014Z,109.46
2022-11-28T23:11:34.613Z,110.07
2022-11-28T23:14:02.522Z,110.33
2022-11-28T23:16:31.811Z,110.46
2022-11-28T23:19:01.492Z,110.25
2022-11-28T23:21:34.626Z,110.29
2022-11-28T23:24:01.359Z,110.63
2022-11-28T23:26:30.850Z,110.18
2022-11-28T23:29:02.060Z,110.28
2022-11-28T23:31:31.073Z,110.26
2022-11-28T23:33:58.759Z,110.22
2022-11-28T23:36:45.823Z,110.42
2022-11-28T23:39:18.219Z,110.30
2022-11-28T23:41:45.312Z,110.22
2022-11-28T23:44:13.117Z,110.65
2022-11-28T23:46:40.719Z,110.62
2022-11-28T23:49:07.507Z,110.81
2022-11-28T23:51:34.639Z,110.33
2022-11-28T23:54:01.610Z,110.80
2022-11-28T23:56:31.316Z,110.89
2022-11-28T23:59:01.175Z,111.34
